Time;durP1;ratioP1;P1;durP2;ratioP2;P2;SDS_P1;SDS_P2;PMS_P1;PMS_P2;Temp;Humidity;BMP_temperature;BMP_pressure;BME280_temperature;BME280_humidity;BME280_pressure;Samples;Min_cycle;Max_cycle;Signal;HPM_P1;HPM_P2
2023/03/19 00:01:47;;;;;;;2.67;1.88;;;;;;;12.31;100.00;101008.91;6327949;22;20030;-69
2023/03/19 00:04:16;;;;;;;4.93;1.83;;;;;;;12.19;100.00;101002.56;6327615;22;20010;-71
2023/03/19 00:06:41;;;;;;;2.78;2.08;;;;;;;12.15;100.00;101016.25;6328248;22;20014;-68
2023/03/19 00:09:07;;;;;;;2.72;1.65;;;;;;;12.24;100.00;101010.25;6327810;22;20010;-70
2023/03/19 00:11:33;;;;;;;18.90;2.67;;;;;;;12.21;100.00;101010.50;6327731;22;20018;-70
2023/03/19 00:13:58;;;;;;;4.53;1.50;;;;;;;12.18;100.00;101008.00;6327802;22;20015;-72
2023/03/19 00:16:24;;;;;;;2.28;1.50;;;;;;;12.07;100.00;101005.22;6327400;22;20023;-69
2023/03/19 00:18:49;;;;;;;1.52;1.40;;;;;;;12.09;100.00;101005.94;6327377;22;20011;-69
2023/03/19 00:21:15;;;;;;;3.10;1.65;;;;;;;12.01;100.00;101017.16;6327438;22;20010;-69
2023/03/19 00:23:40;;;;;;;11.13;2.50;;;;;;;11.98;100.00;101021.84;6327381;22;20469;-69
2023/03/19 00:26:06;;;;;;;5.18;2.13;;;;;;;12.07;100.00;101014.09;6299989;22;20026;-69
2023/03/19 00:28:32;;;;;;;5.00;2.00;;;;;;;12.02;100.00;101012.69;6328040;22;20018;-70
2023/03/19 00:31:06;;;;;;;3.63;2.00;;;;;;;11.81;100.00;101022.94;6299674;22;20030;-69
2023/03/19 00:33:32;;;;;;;8.65;2.78;;;;;;;11.81;100.00;101034.50;6299992;22;20111;-69
2023/03/19 00:35:57;;;;;;;5.65;2.13;;;;;;;11.69;100.00;101019.25;6273628;22;20532;-69
2023/03/19 00:38:23;;;;;;;5.28;2.63;;;;;;;11.66;100.00;101028.31;6326648;22;20011;-69
2023/03/19 00:40:49;;;;;;;5.93;2.20;;;;;;;11.58;100.00;101021.75;6299694;22;20018;-70
2023/03/19 00:43:15;;;;;;;2.65;2.00;;;;;;;11.43;100.00;101023.59;6327460;22;20015;-70
2023/03/19 00:45:40;;;;;;;7.68;2.50;;;;;;;11.51;100.00;101023.13;6327835;22;20092;-69
2023/03/19 00:48:06;;;;;;;4.00;2.00;;;;;;;11.57;100.00;101025.41;6299236;22;20054;-69
2023/03/19 00:50:32;;;;;;;7.18;2.10;;;;;;;11.56;100.00;101027.22;6328016;22;20066;-69
2023/03/19 00:52:58;;;;;;;4.10;2.25;;;;;;;11.49;100.00;101022.34;6327732;22;20019;-71
2023/03/19 00:55:24;;;;;;;4.22;2.50;;;;;;;11.73;100.00;101020.75;6299892;22;20019;-69
2023/03/19 00:57:50;;;;;;;4.28;2.42;;;;;;;11.63;100.00;101023.16;6299655;22;20130;-70
2023/03/19 01:00:18;;;;;;;4.38;2.60;;;;;;;11.60;100.00;101020.72;6327329;22;20048;-69
2023/03/19 01:02:43;;;;;;;4.07;2.45;;;;;;;11.57;100.00;101022.72;6327783;22;20056;-69
2023/03/19 01:05:11;;;;;;;4.72;2.42;;;;;;;11.62;100.00;101017.94;6328306;22;20019;-68
2023/03/19 01:07:36;;;;;;;5.85;2.40;;;;;;;11.65;100.00;101018.59;6299757;22;20018;-70
2023/03/19 01:10:02;;;;;;;4.65;2.65;;;;;;;11.39;100.00;101016.72;6329410;22;20037;-69
2023/03/19 01:12:28;;;;;;;3.47;2.53;;;;;;;11.44;100.00;101027.13;6300966;22;20046;-69
2023/03/19 01:14:54;;;;;;;9.00;3.05;;;;;;;11.47;100.00;101026.94;6327566;22;20021;-69
2023/03/19 01:17:19;;;;;;;6.80;3.00;;;;;;;11.47;100.00;101032.28;6301049;22;20037;-70
2023/03/19 01:19:46;;;;;;;3.22;2.15;;;;;;;11.61;100.00;101027.75;6300810;22;20026;-68
2023/03/19 01:22:13;;;;;;;4.18;2.50;;;;;;;11.54;100.00;101025.56;6328168;22;20011;-69
2023/03/19 01:24:42;;;;;;;4.70;3.10;;;;;;;11.63;100.00;101019.66;6299625;22;20370;-70
2023/03/19 01:27:07;;;;;;;5.90;2.95;;;;;;;11.59;100.00;101018.13;6299347;22;20033;-69
2023/03/19 01:29:35;;;;;;;12.02;3.97;;;;;;;11.55;100.00;101019.31;6299941;22;20019;-69
2023/03/19 01:32:10;;;;;;;4.70;2.80;;;;;;;11.34;100.00;101019.69;6300048;22;20053;-70
2023/03/19 01:34:56;;;;;;;3.58;2.90;;;;;;;11.20;100.00;101022.41;6294592;22;20105;-68
2023/03/19 01:37:21;;;;;;;3.15;2.83;;;;;;;11.24;100.00;101010.56;6300020;22;20015;-68
2023/03/19 01:39:47;;;;;;;4.30;2.45;;;;;;;11.14;100.00;101018.31;6299589;22;20319;-69
2023/03/19 01:42:13;;;;;;;5.30;2.80;;;;;;;11.34;100.00;101009.00;6299899;22;20022;-69
2023/03/19 01:45:36;;;;;;;6.93;2.88;;;;;;;11.30;100.00;101014.69;6300096;22;20414;-68
2023/03/19 01:48:39;;;;;;;5.57;3.10;;;;;;;11.16;100.00;101010.22;6300414;22;20057;-69
2023/03/19 01:51:12;;;;;;;5.68;3.30;;;;;;;11.31;100.00;101008.38;6300411;22;20022;-68
2023/03/19 01:53:59;;;;;;;4.43;3.35;;;;;;;11.01;100.00;101003.16;6326369;22;20029;-66
2023/03/19 01:56:36;;;;;;;3.88;2.78;;;;;;;11.09;100.00;100998.19;6298959;22;20021;-69
2023/03/19 01:59:26;;;;;;;;;;;;;;;11.20;100.00;101000.19;6298650;22;20345;-67
2023/03/19 02:02:34;;;;;;;4.53;3.15;;;;;;;11.14;100.00;101001.41;6326249;22;19914;-69
2023/03/19 02:05:14;;;;;;;8.25;3.47;;;;;;;10.92;100.00;101001.06;6298461;22;20079;-66
2023/03/19 02:07:43;;;;;;;4.68;3.05;;;;;;;10.98;100.00;101000.69;6298632;22;20544;-70
2023/03/19 02:10:15;;;;;;;6.05;3.58;;;;;;;10.94;100.00;100999.16;6298453;22;20011;-70
2023/03/19 02:12:41;;;;;;;6.18;3.40;;;;;;;11.03;100.00;101004.75;6297597;22;20019;-70
2023/03/19 02:15:08;;;;;;;5.15;3.10;;;;;;;11.03;100.00;101007.44;6326598;22;20115;-70
2023/03/19 02:17:33;;;;;;;7.63;3.80;;;;;;;11.09;100.00;101007.06;6298792;22;20047;-69
2023/03/19 02:20:33;;;;;;;6.80;3.80;;;;;;;11.10;100.00;101008.78;6326252;22;20022;-70
2023/03/19 02:23:21;;;;;;;6.68;4.13;;;;;;;10.89;100.00;101002.97;6298818;22;20056;-69
2023/03/19 02:26:12;;;;;;;5.13;3.40;;;;;;;10.70;100.00;101014.88;6300033;22;20023;-68
2023/03/19 02:28:41;;;;;;;6.72;4.00;;;;;;;10.92;100.00;101022.41;6328598;22;20485;-70
2023/03/19 02:31:07;;;;;;;6.07;4.00;;;;;;;11.09;100.00;101016.88;6300781;22;20029;-69
2023/03/19 02:33:34;;;;;;;6.07;4.03;;;;;;;11.12;100.00;101017.53;6328114;22;20420;-68
2023/03/19 02:36:02;;;;;;;7.78;3.72;;;;;;;11.20;100.00;101018.88;6298342;22;20049;-73
2023/03/19 02:38:31;;;;;;;9.18;4.35;;;;;;;11.22;100.00;101023.16;6326127;22;20061;-69
2023/03/19 02:41:03;;;;;;;7.00;4.15;;;;;;;11.15;100.00;101025.38;6298122;22;20022;-69
2023/03/19 02:43:30;;;;;;;4.82;3.83;;;;;;;11.44;100.00;101019.13;6298515;22;20015;-70
2023/03/19 02:46:01;;;;;;;7.78;4.00;;;;;;;11.29;100.00;101021.81;6325974;22;20159;-68
2023/03/19 02:48:27;;;;;;;5.90;3.92;;;;;;;11.37;100.00;101027.53;6297634;22;20015;-70
2023/03/19 02:50:52;;;;;;;9.07;4.68;;;;;;;11.28;100.00;101021.91;6298578;22;20403;-68
2023/03/19 02:53:18;;;;;;;9.38;4.05;;;;;;;11.44;100.00;101019.97;6298480;22;20010;-68
2023/03/19 02:55:43;;;;;;;8.10;4.35;;;;;;;11.36;100.00;101023.16;6299197;22;20014;-68
2023/03/19 02:58:09;;;;;;;6.80;4.07;;;;;;;11.35;100.00;101020.59;6298134;22;20018;-72
2023/03/19 03:00:36;;;;;;;7.13;4.25;;;;;;;11.46;100.00;101018.06;6326198;22;20045;-69
2023/03/19 03:03:02;;;;;;;8.73;4.50;;;;;;;11.53;100.00;101015.84;6298399;22;20019;-69
2023/03/19 03:05:27;;;;;;;9.02;4.25;;;;;;;11.48;100.00;101010.81;6326809;22;20092;-69
2023/03/19 03:07:53;;;;;;;9.68;5.05;;;;;;;11.60;100.00;101015.38;6297880;22;20022;-69
2023/03/19 03:10:19;;;;;;;10.45;4.88;;;;;;;11.66;100.00;101019.47;6326337;22;20022;-69
2023/03/19 03:12:45;;;;;;;7.97;4.38;;;;;;;11.45;100.00;101012.84;6325497;22;20345;-69
2023/03/19 03:15:11;;;;;;;7.38;4.60;;;;;;;11.54;100.00;101020.22;6297362;22;20014;-69
2023/03/19 03:17:41;;;;;;;6.82;4.80;;;;;;;11.39;100.00;101028.28;6297196;22;20014;-68
2023/03/19 03:20:10;;;;;;;13.20;5.32;;;;;;;11.43;100.00;101023.59;6272009;22;20016;-67
2023/03/19 03:22:36;;;;;;;10.40;5.30;;;;;;;11.58;100.00;101027.94;6325702;22;20093;-68
2023/03/19 03:25:02;;;;;;;5.90;4.15;;;;;;;11.66;100.00;101027.47;6325924;22;20015;-70
2023/03/19 03:27:29;;;;;;;6.65;4.57;;;;;;;11.57;100.00;101036.94;6297556;22;20384;-72
2023/03/19 03:29:54;;;;;;;7.88;4.82;;;;;;;11.54;100.00;101037.13;6325689;22;20015;-69
2023/03/19 03:32:20;;;;;;;6.18;4.50;;;;;;;11.51;100.00;101036.47;6325679;22;20011;-69
2023/03/19 03:34:46;;;;;;;6.15;4.32;;;;;;;11.57;100.00;101044.94;6326203;22;20033;-69
2023/03/19 03:37:12;;;;;;;8.55;4.70;;;;;;;11.56;100.00;101045.06;6326185;22;20658;-71
2023/03/19 03:39:37;;;;;;;6.78;4.88;;;;;;;11.45;100.00;101047.56;6326021;22;20113;-70
2023/03/19 03:42:04;;;;;;;8.52;4.72;;;;;;;11.50;100.00;101048.13;6297379;22;20025;-69
2023/03/19 03:44:30;;;;;;;8.45;4.57;;;;;;;11.49;100.00;101047.22;6297935;22;20015;-71
2023/03/19 03:46:56;;;;;;;9.40;5.55;;;;;;;11.33;100.00;101051.84;6297319;22;20026;-69
2023/03/19 03:49:22;;;;;;;8.32;5.70;;;;;;;11.40;100.00;101056.72;6297413;22;20022;-68
2023/03/19 03:51:47;;;;;;;13.35;6.63;;;;;;;11.35;100.00;101060.63;6297526;22;20496;-69
2023/03/19 03:54:13;;;;;;;8.60;5.45;;;;;;;11.37;100.00;101050.69;6297306;22;20041;-70
2023/03/19 03:56:38;;;;;;;10.43;6.38;;;;;;;11.51;100.00;101050.69;6297887;22;20689;-67
2023/03/19 03:59:04;;;;;;;9.25;5.68;;;;;;;11.27;100.00;101060.25;6298882;22;20046;-69
2023/03/19 04:01:29;;;;;;;10.30;6.10;;;;;;;11.37;100.00;101058.72;6326423;22;20015;-69
2023/03/19 04:03:56;;;;;;;10.18;6.43;;;;;;;11.29;100.00;101053.84;6326980;22;20011;-69
2023/03/19 04:06:23;;;;;;;10.18;6.25;;;;;;;11.44;100.00;101053.81;6298047;22;20206;-69
2023/03/19 04:09:04;;;;;;;11.23;6.63;;;;;;;11.37;100.00;101056.91;6298897;22;20514;-67
2023/03/19 04:11:30;;;;;;;13.05;7.70;;;;;;;11.58;100.00;101059.16;6299750;22;20019;-70
2023/03/19 04:13:56;;;;;;;15.13;7.78;;;;;;;11.41;100.00;101057.56;6325960;22;20337;-69
2023/03/19 04:16:23;;;;;;;12.80;6.45;;;;;;;11.55;100.00;101057.53;6297588;22;20023;-70
2023/03/19 04:18:50;;;;;;;9.38;6.47;;;;;;;11.28;100.00;101054.78;6297247;22;20034;-69
2023/03/19 04:21:15;;;;;;;11.57;7.10;;;;;;;11.27;100.00;101044.22;6297762;22;20019;-67
2023/03/19 04:23:41;;;;;;;12.02;7.20;;;;;;;11.30;100.00;101055.56;6297386;22;20033;-69
2023/03/19 04:26:07;;;;;;;12.27;7.28;;;;;;;11.32;100.00;101058.13;6325813;22;20018;-68
2023/03/19 04:28:33;;;;;;;12.75;7.70;;;;;;;11.21;100.00;101063.31;6296816;22;20599;-68
2023/03/19 04:31:00;;;;;;;11.52;7.05;;;;;;;11.26;100.00;101056.72;6296952;22;20022;-69
2023/03/19 04:33:25;;;;;;;12.85;7.97;;;;;;;11.27;100.00;101054.91;6297268;22;20026;-69
2023/03/19 04:35:51;;;;;;;13.00;7.65;;;;;;;11.26;100.00;101058.53;6324820;22;20010;-69
2023/03/19 04:38:17;;;;;;;14.27;8.38;;;;;;;11.06;100.00;101057.97;6327067;22;20011;-69
2023/03/19 04:40:42;;;;;;;19.73;8.65;;;;;;;11.26;100.00;101063.88;6299595;22;20096;-69
2023/03/19 04:43:08;;;;;;;19.08;9.63;;;;;;;11.17;100.00;101067.09;6299989;22;20029;-69
2023/03/19 04:45:35;;;;;;;14.32;7.82;;;;;;;11.30;100.00;101060.91;6298902;22;20215;-69
2023/03/19 04:48:01;;;;;;;12.27;7.70;;;;;;;11.21;100.00;101061.50;6326858;22;20597;-67
2023/03/19 04:50:28;;;;;;;12.88;7.53;;;;;;;11.22;100.00;101067.69;6299032;22;20035;-68
2023/03/19 04:52:54;;;;;;;15.15;8.32;;;;;;;11.20;100.00;101065.13;6273293;22;20471;-69
2023/03/19 04:55:20;;;;;;;16.15;8.25;;;;;;;11.05;100.00;101072.25;6298451;22;20015;-69
2023/03/19 04:57:52;;;;;;;15.88;8.60;;;;;;;10.93;100.00;101073.00;6298563;22;20129;-69
2023/03/19 05:00:21;;;;;;;15.32;9.02;;;;;;;10.74;100.00;101077.72;6298572;22;20067;-67
2023/03/19 05:02:47;;;;;;;13.52;8.30;;;;;;;10.92;100.00;101073.97;6298792;22;20153;-69
2023/03/19 05:05:13;;;;;;;12.40;7.43;;;;;;;10.86;100.00;101082.34;6298683;22;20018;-69
2023/03/19 05:07:41;;;;;;;17.80;8.60;;;;;;;10.78;100.00;101085.47;6299104;22;20349;-69
2023/03/19 05:10:08;;;;;;;17.63;8.50;;;;;;;10.66;100.00;101085.34;6298528;22;20407;-67
2023/03/19 05:12:34;;;;;;;13.25;8.95;;;;;;;10.72;100.00;101095.66;6327331;22;20046;-71
2023/03/19 05:15:01;;;;;;;14.18;8.98;;;;;;;10.59;100.00;101098.16;6298670;22;20030;-69
2023/03/19 05:17:36;;;;;;;15.27;9.95;;;;;;;10.62;100.00;101098.84;6298860;22;20321;-69
2023/03/19 05:20:11;;;;;;;17.80;9.30;;;;;;;10.79;100.00;101099.66;6299618;22;20029;-69
2023/03/19 05:22:40;;;;;;;15.45;9.30;;;;;;;10.56;100.00;101098.38;6298901;22;20451;-72
2023/03/19 05:25:06;;;;;;;15.85;9.38;;;;;;;10.67;100.00;101109.25;6298501;22;20014;-69
2023/03/19 05:27:32;;;;;;;14.13;9.45;;;;;;;10.79;100.00;101096.97;6326869;22;20046;-67
2023/03/19 05:30:03;;;;;;;18.15;9.45;;;;;;;10.74;100.00;101099.06;6299036;22;20022;-68
2023/03/19 05:32:39;;;;;;;15.57;9.52;;;;;;;11.00;100.00;101095.72;6337678;22;20022;-67
2023/03/19 05:35:06;;;;;;;15.20;8.55;;;;;;;10.96;100.00;101098.66;6298520;22;20030;-68
2023/03/19 05:37:34;;;;;;;15.30;8.43;;;;;;;10.60;100.00;101092.78;6297908;22;20042;-70
2023/03/19 05:40:00;;;;;;;13.77;8.23;;;;;;;10.64;100.00;101104.09;6298240;22;20173;-70
2023/03/19 05:42:25;;;;;;;23.70;9.23;;;;;;;10.54;100.00;101108.25;6298256;22;20011;-69
2023/03/19 05:44:53;;;;;;;15.90;9.45;;;;;;;10.56;100.00;101109.03;6297877;22;20042;-71
2023/03/19 05:47:27;;;;;;;18.95;8.93;;;;;;;10.32;100.00;101117.50;6325701;22;20585;-69
2023/03/19 05:49:55;;;;;;;18.42;9.68;;;;;;;10.41;100.00;101124.13;6272810;22;20107;-69
2023/03/19 05:52:22;;;;;;;19.48;10.55;;;;;;;10.27;100.00;101122.25;6297497;22;20022;-68
2023/03/19 05:54:49;;;;;;;23.92;11.55;;;;;;;10.44;100.00;101133.72;6297845;22;20041;-74
2023/03/19 05:57:27;;;;;;;18.15;10.70;;;;;;;10.52;100.00;101126.16;6297671;22;20430;-69
2023/03/19 06:00:01;;;;;;;17.33;10.63;;;;;;;10.66;100.00;101123.53;6297906;22;20049;-69
2023/03/19 06:02:33;;;;;;;19.20;10.55;;;;;;;10.73;100.00;101121.38;6336786;22;20076;-72
2023/03/19 06:05:13;;;;;;;19.40;10.10;;;;;;;10.82;100.00;101123.50;6298117;22;20021;-69
2023/03/19 06:07:39;;;;;;;20.35;11.05;;;;;;;10.82;100.00;101128.81;6297828;22;20019;-68
2023/03/19 06:10:10;;;;;;;21.35;12.13;;;;;;;10.71;100.00;101133.94;6298505;22;20014;-69
2023/03/19 06:12:36;;;;;;;21.58;10.95;;;;;;;10.82;100.00;101128.81;6297630;22;20014;-68
2023/03/19 06:15:02;;;;;;;26.40;12.65;;;;;;;10.68;100.00;101123.44;6326410;22;20030;-70
2023/03/19 06:17:46;;;;;;;18.55;10.73;;;;;;;10.72;100.00;101128.50;6325309;22;20065;-71
2023/03/19 06:20:15;;;;;;;18.63;10.50;;;;;;;10.67;100.00;101130.59;6297808;22;20019;-72
2023/03/19 06:22:42;;;;;;;24.00;11.73;;;;;;;10.71;100.00;101141.94;6298122;22;20041;-69
2023/03/19 06:25:08;;;;;;;27.38;12.77;;;;;;;10.60;100.00;101143.44;6298043;22;20019;-69
2023/03/19 06:27:35;;;;;;;22.35;12.38;;;;;;;10.68;100.00;101145.63;6298003;22;20022;-71
2023/03/19 06:30:20;;;;;;;26.77;13.93;;;;;;;10.75;100.00;101162.16;6326546;22;20518;-69
2023/03/19 06:32:45;;;;;;;25.52;13.90;;;;;;;10.88;100.00;101155.13;6297011;22;20027;-69
2023/03/19 06:35:12;;;;;;;30.95;14.52;;;;;;;11.23;100.00;101157.47;6269667;22;20105;-68
2023/03/19 06:37:38;;;;;;;21.67;12.77;;;;;;;11.33;100.00;101161.31;6296721;22;20029;-69
2023/03/19 06:40:04;;;;;;;24.33;13.45;;;;;;;11.35;100.00;101154.06;6324863;22;20448;-70
2023/03/19 06:42:30;;;;;;;25.17;13.98;;;;;;;11.61;100.00;101160.47;6324325;22;20066;-69
2023/03/19 06:44:56;;;;;;;21.67;11.38;;;;;;;11.78;100.00;101162.06;6296144;22;20160;-69
2023/03/19 06:47:22;;;;;;;19.35;11.65;;;;;;;11.85;100.00;101155.44;6323790;22;20042;-69
2023/03/19 06:49:48;;;;;;;29.60;12.40;;;;;;;12.24;100.00;101156.47;6323812;22;20003;-68
2023/03/19 06:52:14;;;;;;;21.23;11.38;;;;;;;12.38;100.00;101154.59;6296647;22;20017;-68
2023/03/19 06:54:40;;;;;;;16.35;10.13;;;;;;;12.73;100.00;101163.91;6324648;22;20014;-69
2023/03/19 06:57:05;;;;;;;16.33;9.57;;;;;;;12.55;100.00;101152.63;6324687;22;20021;-69
2023/03/19 06:59:30;;;;;;;17.63;9.73;;;;;;;12.56;100.00;101165.06;6324682;22;20011;-69
2023/03/19 07:01:56;;;;;;;15.18;9.50;;;;;;;13.01;100.00;101152.22;6325052;22;20014;-69
2023/03/19 07:04:21;;;;;;;16.35;9.10;;;;;;;13.33;100.00;101156.22;6324072;22;20072;-71
2023/03/19 07:06:47;;;;;;;19.00;9.65;;;;;;;13.56;100.00;101154.59;6326160;22;20011;-69
2023/03/19 07:09:12;;;;;;;21.13;9.80;;;;;;;13.03;100.00;101166.34;6324847;22;20401;-69
2023/03/19 07:11:38;;;;;;;14.07;9.30;;;;;;;13.06;100.00;101168.81;6324306;22;20023;-69
2023/03/19 07:14:03;;;;;;;18.08;10.45;;;;;;;12.98;100.00;101169.31;6323632;22;20014;-68
2023/03/19 07:16:29;;;;;;;17.52;9.23;;;;;;;12.95;100.00;101172.19;6323860;22;20071;-69
2023/03/19 07:18:55;;;;;;;14.02;9.55;;;;;;;13.01;100.00;101173.63;6295574;22;20015;-69
2023/03/19 07:21:21;;;;;;;15.50;10.25;;;;;;;13.02;100.00;101172.66;6323688;22;20029;-69
2023/03/19 07:23:49;;;;;;;17.15;10.65;;;;;;;13.59;100.00;101175.81;6323604;22;20604;-69
2023/03/19 07:26:15;;;;;;;17.67;11.20;;;;;;;13.44;100.00;101174.22;6323517;22;20015;-69
2023/03/19 07:28:41;;;;;;;17.35;10.10;;;;;;;13.45;100.00;101176.81;6324336;22;20030;-69
2023/03/19 07:31:07;;;;;;;18.73;11.20;;;;;;;13.64;100.00;101176.34;6324485;22;20434;-69
2023/03/19 07:33:32;;;;;;;14.82;10.32;;;;;;;13.26;100.00;101179.03;6322570;22;20018;-68
2023/03/19 07:35:57;;;;;;;13.65;9.68;;;;;;;13.56;100.00;101178.72;6322980;22;20467;-69
2023/03/19 07:38:23;;;;;;;16.00;10.48;;;;;;;14.02;100.00;101179.94;6322438;22;20677;-69
2023/03/19 07:40:49;;;;;;;18.77;11.48;;;;;;;13.91;100.00;101180.72;6321819;22;20440;-71
2023/03/19 07:43:15;;;;;;;15.60;10.02;;;;;;;13.99;100.00;101191.72;6321522;22;20015;-70
2023/03/19 07:45:41;;;;;;;21.75;10.40;;;;;;;14.54;100.00;101194.91;6294034;22;20019;-69
2023/03/19 07:48:07;;;;;;;16.65;9.70;;;;;;;14.03;100.00;101193.22;6323254;22;20023;-69
2023/03/19 07:50:33;;;;;;;18.00;9.52;;;;;;;13.51;100.00;101191.59;6295570;22;20052;-68
2023/03/19 07:52:58;;;;;;;17.15;11.00;;;;;;;13.80;100.00;101191.31;6323111;22;20018;-69
2023/03/19 07:55:24;;;;;;;13.75;8.85;;;;;;;13.75;100.00;101194.34;6322850;22;20440;-68
2023/03/19 07:57:50;;;;;;;14.05;9.60;;;;;;;13.33;100.00;101200.91;6323069;22;20015;-69
2023/03/19 08:00:16;;;;;;;14.90;9.43;;;;;;;13.13;100.00;101208.44;6323116;22;20099;-69
2023/03/19 08:02:43;;;;;;;15.65;10.35;;;;;;;13.02;100.00;101211.00;6322794;22;20080;-69
2023/03/19 08:05:09;;;;;;;25.23;10.75;;;;;;;12.88;100.00;101213.75;6322730;22;20018;-68
2023/03/19 08:07:35;;;;;;;19.95;11.45;;;;;;;12.79;100.00;101215.19;6294074;22;20019;-69
2023/03/19 08:10:03;;;;;;;17.30;10.85;;;;;;;12.96;100.00;101220.31;6321450;22;20011;-68
2023/03/19 08:12:31;;;;;;;16.83;10.10;;;;;;;12.99;100.00;101221.91;6323932;22;20057;-69
2023/03/19 08:14:56;;;;;;;16.83;10.55;;;;;;;13.26;100.00;101213.00;6324989;22;20042;-70
2023/03/19 08:17:23;;;;;;;17.55;11.20;;;;;;;14.05;100.00;101214.56;6324931;22;20015;-69
2023/03/19 08:19:49;;;;;;;16.10;9.95;;;;;;;14.01;100.00;101211.25;6325240;22;20028;-68
2023/03/19 08:22:15;;;;;;;16.60;10.20;;;;;;;14.52;100.00;101212.97;6325052;22;20481;-69
2023/03/19 08:24:40;;;;;;;17.85;9.40;;;;;;;14.69;100.00;101209.88;6324872;22;20502;-69
2023/03/19 08:27:08;;;;;;;15.93;8.90;;;;;;;15.24;100.00;101213.75;6324504;22;20014;-68
2023/03/19 08:29:33;;;;;;;13.85;9.10;;;;;;;14.31;100.00;101216.22;6324455;22;20734;-69
2023/03/19 08:32:00;;;;;;;14.60;9.00;;;;;;;14.65;100.00;101213.75;6324557;22;20015;-70
2023/03/19 08:34:26;;;;;;;15.32;9.30;;;;;;;14.31;100.00;101223.41;6324143;22;20658;-69
2023/03/19 08:36:52;;;;;;;15.45;10.23;;;;;;;14.62;100.00;101220.22;6324372;22;20430;-70
2023/03/19 08:39:17;;;;;;;18.08;9.55;;;;;;;14.72;100.00;101221.25;6322945;22;20026;-69
2023/03/19 08:41:43;;;;;;;15.48;8.90;;;;;;;14.48;100.00;101221.22;6324387;22;20017;-69
2023/03/19 08:44:08;;;;;;;14.43;8.48;;;;;;;14.50;100.00;101224.66;6323432;22;20014;-69
2023/03/19 08:46:34;;;;;;;16.70;8.98;;;;;;;14.64;100.00;101230.84;6324862;22;20040;-71
2023/03/19 08:49:00;;;;;;;14.80;7.78;;;;;;;14.83;100.00;101241.06;6324484;22;20014;-69
2023/03/19 08:51:28;;;;;;;19.50;8.02;;;;;;;14.67;100.00;101242.22;6324152;22;20015;-72
2023/03/19 08:53:53;;;;;;;14.25;7.30;;;;;;;15.21;100.00;101233.66;6324623;22;20011;-70
2023/03/19 08:56:19;;;;;;;15.20;7.38;;;;;;;14.86;100.00;101240.81;6325207;22;20046;-69
2023/03/19 08:58:45;;;;;;;14.07;8.02;;;;;;;14.37;100.00;101245.28;6296628;22;20082;-70
2023/03/19 09:01:13;;;;;;;9.98;7.47;;;;;;;14.92;100.00;101249.28;6296167;22;20040;-70
2023/03/19 09:03:40;;;;;;;10.15;7.00;;;;;;;15.08;100.00;101253.50;6324008;22;20023;-67
2023/03/19 09:06:08;;;;;;;10.57;7.32;;;;;;;15.02;100.00;101247.63;6324316;22;20322;-69
2023/03/19 09:08:36;;;;;;;11.07;7.35;;;;;;;14.80;100.00;101255.56;6323929;22;20022;-72
2023/03/19 09:11:02;;;;;;;12.02;7.35;;;;;;;16.02;100.00;101248.84;6324003;22;20080;-69
2023/03/19 09:13:28;;;;;;;7.95;6.70;;;;;;;15.91;100.00;101248.81;6323930;22;20015;-69
2023/03/19 09:15:53;;;;;;;9.63;6.38;;;;;;;15.78;100.00;101251.63;6323697;22;20090;-70
2023/03/19 09:18:19;;;;;;;7.10;5.15;;;;;;;14.71;100.00;101258.97;6323462;22;20032;-70
2023/03/19 09:20:46;;;;;;;8.32;5.72;;;;;;;14.42;100.00;101264.59;6323447;22;20014;-69
2023/03/19 09:23:11;;;;;;;10.35;6.45;;;;;;;14.30;100.00;101265.47;6323070;22;20019;-70
2023/03/19 09:25:37;;;;;;;13.68;6.80;;;;;;;14.21;100.00;101267.00;6323704;22;20010;-69
2023/03/19 09:28:03;;;;;;;14.18;6.07;;;;;;;13.91;100.00;101270.06;6295859;22;20019;-69
2023/03/19 09:30:28;;;;;;;11.50;6.75;;;;;;;14.16;100.00;101268.31;6296094;22;20015;-70
2023/03/19 09:32:54;;;;;;;11.88;6.15;;;;;;;15.24;100.00;101265.66;6295536;22;20010;-69
2023/03/19 09:35:19;;;;;;;9.43;6.22;;;;;;;15.26;100.00;101271.78;6295700;22;20524;-69
2023/03/19 09:37:45;;;;;;;13.23;7.57;;;;;;;15.53;100.00;101271.47;6322841;22;20021;-69
2023/03/19 09:40:27;;;;;;;11.63;5.20;;;;;;;15.84;99.53;101262.88;6323706;22;20026;-70
2023/03/19 09:43:16;;;;;;;9.50;5.90;;;;;;;16.64;96.29;101258.19;6322823;22;20018;-69
2023/03/19 09:45:45;;;;;;;9.93;6.40;;;;;;;16.63;97.20;101258.31;6323264;22;20506;-71
2023/03/19 09:48:22;;;;;;;8.50;5.70;;;;;;;17.30;94.80;101261.63;6323964;22;20025;-69
2023/03/19 09:50:49;;;;;;;7.50;5.75;;;;;;;16.53;94.94;101266.28;6323914;22;20026;-69
2023/03/19 09:53:17;;;;;;;9.65;6.22;;;;;;;16.05;98.24;101274.63;6323240;22;20010;-68
2023/03/19 09:55:50;;;;;;;12.35;6.32;;;;;;;15.51;98.56;101284.19;6293799;22;20032;-69
2023/03/19 09:58:29;;;;;;;12.07;5.88;;;;;;;15.24;100.00;101281.78;6287777;22;20042;-69
2023/03/19 10:00:55;;;;;;;11.00;6.07;;;;;;;15.07;99.62;101286.72;6316222;22;20102;-67
2023/03/19 10:03:30;;;;;;;12.50;5.93;;;;;;;14.74;100.00;101286.41;6316567;22;20018;-67
2023/03/19 10:06:14;;;;;;;8.27;6.18;;;;;;;15.34;100.00;101292.69;6316266;22;20014;-67
2023/03/19 10:08:45;;;;;;;14.50;5.90;;;;;;;15.81;97.17;101280.09;6316142;22;20540;-69
2023/03/19 10:11:36;;;;;;;8.80;5.63;;;;;;;16.01;93.94;101279.41;6315694;22;20107;-68
2023/03/19 10:14:31;;;;;;;9.90;5.32;;;;;;;16.64;92.76;101277.03;6315957;22;20273;-68
2023/03/19 10:17:00;;;;;;;6.63;5.78;;;;;;;16.31;96.70;101272.53;6316292;22;20022;-71
2023/03/19 10:19:39;;;;;;;7.78;5.35;;;;;;;16.76;92.21;101278.72;6315684;22;20007;-67
2023/03/19 10:22:11;;;;;;;9.13;6.53;;;;;;;16.88;92.59;101278.72;6317180;22;20018;-67
2023/03/19 10:24:41;;;;;;;7.50;5.22;;;;;;;16.37;94.83;101279.28;6317216;22;20014;-69
2023/03/19 10:27:17;;;;;;;25.80;5.50;;;;;;;16.58;92.32;101286.47;6315649;22;20019;-69
2023/03/19 10:29:43;;;;;;;12.57;5.55;;;;;;;16.36;99.80;101277.53;6287937;22;20019;-67
2023/03/19 10:32:48;;;;;;;11.13;5.63;;;;;;;16.24;94.20;101279.41;6287971;22;20018;-67
2023/03/19 10:35:26;;;;;;;13.32;6.72;;;;;;;16.68;93.88;101283.03;6231490;22;20028;-68
2023/03/19 10:37:54;;;;;;;10.30;6.20;;;;;;;16.72;90.50;101285.38;6289484;22;20113;-67
2023/03/19 10:40:34;;;;;;;8.20;5.60;;;;;;;16.26;92.34;101286.34;6317191;22;20540;-66
2023/03/19 10:43:13;;;;;;;7.88;4.90;;;;;;;16.53;94.65;101285.97;6317038;22;20619;-66
2023/03/19 10:45:39;;;;;;;7.72;5.13;;;;;;;16.16;93.39;101297.97;6315260;22;20029;-68
2023/03/19 10:48:10;;;;;;;5.85;5.05;;;;;;;16.70;90.82;101289.97;6315422;22;20805;-67
2023/03/19 10:50:36;;;;;;;10.40;4.65;;;;;;;16.43;90.80;101297.63;6314716;22;20131;-69
2023/03/19 10:53:13;;;;;;;7.50;4.90;;;;;;;16.43;89.03;101295.78;6316065;22;20651;-66
2023/03/19 10:55:49;;;;;;;9.70;4.63;;;;;;;16.86;93.82;101300.38;6315345;22;20014;-69
2023/03/19 10:58:18;;;;;;;14.27;5.47;;;;;;;17.56;89.28;101293.59;6316204;22;20011;-66
2023/03/19 11:00:54;;;;;;;8.23;4.63;;;;;;;16.95;86.86;101296.94;6287628;22;20089;-68
2023/03/19 11:03:30;;;;;;;9.15;5.00;;;;;;;17.13;87.19;101297.25;6315516;22;20041;-68
2023/03/19 11:06:04;;;;;;;7.47;4.82;;;;;;;17.68;88.94;101297.09;6287035;22;20019;-69
2023/03/19 11:08:35;;;;;;;15.30;6.18;;;;;;;16.24;86.88;101303.63;6315522;22;20043;-68
2023/03/19 11:11:00;;;;;;;13.20;5.68;;;;;;;17.36;85.81;101303.38;6287683;22;20089;-67
2023/03/19 11:13:26;;;;;;;8.35;4.65;;;;;;;16.88;80.72;101293.03;6315804;22;20109;-68
2023/03/19 11:15:56;;;;;;;10.15;5.65;;;;;;;17.37;83.04;101294.34;6315651;22;20093;-66
2023/03/19 11:18:27;;;;;;;7.72;4.45;;;;;;;17.58;82.65;101292.50;6316149;22;20061;-72
2023/03/19 11:20:57;;;;;;;10.10;4.65;;;;;;;18.17;82.04;101296.38;6315506;22;20029;-66